Portada
METAR-TAF:

METAR-TAF

Aeroports :

Portland International Jetport

Portland, Maine, Estats Units d'Amèrica

latitud: 43-38-32N, longitud: 070-18-16W, altitud: 22 m

Observació

L'informe es va fer fa 17 minuts, a les 09:51 UTC
Vent 4 kt del Nord-Oest
Temperatura 21°C
Humitat 64%
Pressió 1018 hPa
Visibilitat: 16.1 km
Núvols disperses a una alçada de 9000 ft

METAR: KPWM 140951Z 31004KT 10SM SCT090 21/14 A3007 RMK AO2 SLP183 T02060144

Hora: 06:08 (10:08 UTC)

Pronòstic

L'informe es va fer fa 1 hora i 5 minuts, a les 09:03 UTC
Pronòstic vàlid del 14 a les 09 UTC al 15 a les 06 UTC
Vent 3 kt amb direcció variable
Visibilitat: 10 km
Cel ennuvolat a una alçada de 25000 ft
A partir de les 14 a les 1400 UTC
Vent 9 kt del Est
Visibilitat: 10 km
Cel ennuvolat a una alçada de 25000 ft

TAF: KPWM 140903Z 1409/1506 VRB03KT P6SM BKN250 FM141400 09009KT P6SM BKN250

Observacions i pronòstics meteorològics de més de 4000 aeroports (METAR i TAF).

Les estacions disponibles són els punts grocs i vermells al mapa.

Posi el ratolí al punt desitjat per veure el nom de l'estació.

Feu clic per veure les observacions i els pronòstics meteorològics.

Per canviar el mapa: feu clic els botons verds amb una creu de color negre per apropar; al botó verd amb un guió per allunyar la imatge; o en les fletxes verdes per a mapes adjacents.


METAR-TAF: